createdAt,value
2017-09-25T00:00:13.999Z,17.13
2017-09-25T00:02:42.590Z,17.37
2017-09-25T00:05:11.234Z,15.87
2017-09-25T00:07:41.455Z,17.50
2017-09-25T00:10:10.984Z,17.27
2017-09-25T00:12:39.660Z,18.40
2017-09-25T00:15:08.333Z,17.20
2017-09-25T00:17:37.184Z,18.30
2017-09-25T00:20:05.861Z,18.00
2017-09-25T00:22:34.452Z,17.20
2017-09-25T00:25:03.745Z,16.47
2017-09-25T00:27:32.352Z,15.60
2017-09-25T00:30:01.103Z,16.80
2017-09-25T00:32:29.638Z,16.00
2017-09-25T00:34:58.367Z,16.60
2017-09-25T00:40:01.294Z,17.77
2017-09-25T00:42:29.865Z,17.63
2017-09-25T00:44:58.482Z,17.10
2017-09-25T00:47:27.057Z,18.40
2017-09-25T00:49:56.198Z,16.80
2017-09-25T00:55:29.242Z,17.03
2017-09-25T00:57:57.847Z,17.20
2017-09-25T01:00:37.596Z,17.23
2017-09-25T01:06:21.410Z,15.80
2017-09-25T01:08:49.990Z,19.20
2017-09-25T01:11:18.589Z,16.80
2017-09-25T01:13:47.090Z,17.30
2017-09-25T01:16:15.615Z,16.30
2017-09-25T01:18:44.119Z,18.70
2017-09-25T01:21:12.712Z,17.60
2017-09-25T01:23:40.706Z,16.20
2017-09-25T01:26:09.050Z,15.97
2017-09-25T01:28:37.951Z,17.77
2017-09-25T01:31:06.478Z,18.87
2017-09-25T01:33:35.129Z,17.13
2017-09-25T01:36:03.628Z,18.37
2017-09-25T01:38:32.182Z,17.50
2017-09-25T01:41:00.725Z,18.03
2017-09-25T01:43:30.048Z,15.93
2017-09-25T01:45:58.630Z,18.50
2017-09-25T01:48:26.855Z,17.20
2017-09-25T01:50:55.403Z,16.10
2017-09-25T01:53:23.958Z,17.60
2017-09-25T01:55:52.578Z,17.90
2017-09-25T01:58:21.193Z,17.83
2017-09-25T02:00:49.541Z,17.67
2017-09-25T02:03:18.093Z,19.30
2017-09-25T02:05:46.469Z,18.60
2017-09-25T02:08:15.022Z,17.67
2017-09-25T02:10:43.578Z,18.20
2017-09-25T02:13:11.978Z,18.90
2017-09-25T02:15:40.550Z,18.93
2017-09-25T02:18:09.127Z,17.57
2017-09-25T02:20:37.598Z,17.77
2017-09-25T02:23:06.546Z,17.33
2017-09-25T02:25:35.145Z,17.73
2017-09-25T02:28:03.676Z,18.50
2017-09-25T02:30:32.192Z,17.60
2017-09-25T02:33:00.744Z,15.83
2017-09-25T02:35:29.263Z,17.13
2017-09-25T02:37:57.195Z,19.60
2017-09-25T02:40:25.689Z,20.43
2017-09-25T02:42:54.260Z,17.80
2017-09-25T02:45:22.764Z,16.90
2017-09-25T02:47:51.337Z,16.93
2017-09-25T02:50:20.251Z,16.47
2017-09-25T02:52:48.818Z,17.57
2017-09-25T02:55:17.395Z,19.97
2017-09-25T02:57:45.922Z,16.97
2017-09-25T03:00:15.105Z,16.70
2017-09-25T03:02:43.658Z,17.83
2017-09-25T03:05:11.938Z,16.63
2017-09-25T03:07:40.482Z,15.57
2017-09-25T03:10:09.086Z,19.57
2017-09-25T03:12:38.367Z,18.63
2017-09-25T03:15:11.438Z,18.10
2017-09-25T03:17:39.976Z,17.90
2017-09-25T03:20:08.461Z,17.90
2017-09-25T03:22:36.817Z,19.43
2017-09-25T03:25:05.390Z,21.03
2017-09-25T03:27:33.906Z,18.07
2017-09-25T03:30:02.451Z,20.03
2017-09-25T03:32:31.063Z,19.23
2017-09-25T03:34:59.605Z,17.17
2017-09-25T03:37:28.164Z,18.20
2017-09-25T03:39:56.669Z,17.73
2017-09-25T03:42:25.959Z,19.20
2017-09-25T03:44:54.437Z,18.83
2017-09-25T03:47:23.142Z,19.43
2017-09-25T03:49:51.680Z,19.67
2017-09-25T03:52:20.179Z,17.90
2017-09-25T03:54:48.695Z,18.10
2017-09-25T03:57:17.245Z,19.00
2017-09-25T03:59:45.834Z,18.03
2017-09-25T04:02:14.411Z,18.23
2017-09-25T04:04:42.921Z,18.40
2017-09-25T04:07:13.562Z,19.90
2017-09-25T04:09:42.906Z,19.73
2017-09-25T04:12:11.438Z,18.60
2017-09-25T04:14:39.938Z,20.10
2017-09-25T04:17:12.214Z,20.60
2017-09-25T04:22:14.874Z,17.37
2017-09-25T04:24:44.248Z,18.10
2017-09-25T04:27:12.779Z,18.90
2017-09-25T04:32:07.200Z,18.30
2017-09-25T04:34:35.764Z,19.03
2017-09-25T04:37:04.285Z,17.67
2017-09-25T04:39:32.863Z,20.20
2017-09-25T04:42:01.374Z,21.90
2017-09-25T04:44:29.875Z,19.80
2017-09-25T04:46:58.380Z,18.70
2017-09-25T04:49:26.838Z,20.10
2017-09-25T04:51:55.394Z,20.20
2017-09-25T04:54:23.981Z,19.63
2017-09-25T04:56:59.195Z,22.73
2017-09-25T04:59:32.282Z,21.03
2017-09-25T05:02:00.864Z,19.40
2017-09-25T05:04:29.408Z,22.67
2017-09-25T05:06:57.964Z,21.67
2017-09-25T05:09:26.529Z,20.10
2017-09-25T05:11:55.792Z,20.50
2017-09-25T05:14:24.283Z,20.87
2017-09-25T05:16:54.784Z,19.50
2017-09-25T05:19:23.286Z,20.13
2017-09-25T05:21:52.781Z,19.60
2017-09-25T05:24:23.058Z,19.00
2017-09-25T05:26:51.783Z,20.63
2017-09-25T05:29:20.512Z,19.83
2017-09-25T05:31:49.084Z,18.87
2017-09-25T05:34:17.627Z,19.40
2017-09-25T05:36:46.146Z,20.40
2017-09-25T05:39:14.756Z,21.30
2017-09-25T05:41:44.012Z,21.07
2017-09-25T05:44:12.531Z,21.77
2017-09-25T05:46:41.102Z,20.63
2017-09-25T05:51:54.386Z,21.60
2017-09-25T05:54:23.672Z,20.03
2017-09-25T05:56:52.156Z,21.07
2017-09-25T05:59:21.534Z,21.90
2017-09-25T06:01:50.011Z,21.77
2017-09-25T06:04:21.971Z,21.80
2017-09-25T06:06:50.436Z,25.13
2017-09-25T06:09:18.974Z,25.07
2017-09-25T06:11:47.327Z,22.33
2017-09-25T06:14:19.542Z,21.80
2017-09-25T06:16:47.802Z,25.30
2017-09-25T06:19:19.511Z,25.40
2017-09-25T06:21:48.003Z,27.83
2017-09-25T06:24:16.455Z,25.20
2017-09-25T06:26:44.892Z,28.10
2017-09-25T06:29:13.346Z,24.57
2017-09-25T06:31:43.658Z,24.97
2017-09-25T06:34:12.123Z,26.23
2017-09-25T06:36:40.597Z,25.30
2017-09-25T06:39:12.641Z,24.50
2017-09-25T06:41:41.130Z,24.83
2017-09-25T06:44:10.449Z,24.43
2017-09-25T06:46:38.866Z,22.27
2017-09-25T06:49:07.356Z,23.97
2017-09-25T06:51:35.799Z,23.80
2017-09-25T06:54:04.322Z,22.13
2017-09-25T06:56:32.830Z,21.40
2017-09-25T06:59:01.263Z,22.17
2017-09-25T07:01:29.709Z,22.40
2017-09-25T07:03:58.963Z,21.53
2017-09-25T07:06:27.474Z,19.00
2017-09-25T07:08:56.703Z,14.50
2017-09-25T07:11:25.185Z,14.93
2017-09-25T07:13:54.460Z,14.13
2017-09-25T07:16:24.254Z,14.73
2017-09-25T07:18:52.742Z,13.63
2017-09-25T07:21:21.211Z,13.30
2017-09-25T07:23:49.743Z,13.87
2017-09-25T07:26:18.211Z,12.80
2017-09-25T07:28:46.671Z,13.60
2017-09-25T07:31:15.224Z,14.23
2017-09-25T07:33:46.907Z,15.67
2017-09-25T07:36:15.426Z,12.53
2017-09-25T07:38:44.642Z,12.17
2017-09-25T07:41:13.164Z,11.43
2017-09-25T07:43:48.477Z,12.90
2017-09-25T07:46:19.545Z,12.73
2017-09-25T07:48:50.998Z,14.50
2017-09-25T07:51:22.223Z,13.57
2017-09-25T07:53:50.762Z,14.90
2017-09-25T07:56:20.067Z,14.20
2017-09-25T07:58:48.592Z,14.47
2017-09-25T08:01:17.117Z,14.50
2017-09-25T08:03:45.605Z,14.87
2017-09-25T08:06:17.093Z,14.90
2017-09-25T08:08:45.574Z,12.60
2017-09-25T08:11:16.849Z,12.87
2017-09-25T08:13:45.354Z,13.30
2017-09-25T08:16:16.399Z,12.33
2017-09-25T08:18:44.886Z,12.80
2017-09-25T08:21:13.383Z,12.43
2017-09-25T08:23:42.654Z,10.70
2017-09-25T08:26:11.158Z,11.27
2017-09-25T08:28:39.662Z,9.50
2017-09-25T08:31:08.196Z,9.07
2017-09-25T08:33:36.767Z,11.00
2017-09-25T08:36:05.321Z,12.10
2017-09-25T08:38:33.818Z,10.40
2017-09-25T08:41:02.484Z,10.90
2017-09-25T08:43:30.979Z,12.13
2017-09-25T08:45:59.543Z,10.93
2017-09-25T08:48:28.095Z,12.37
2017-09-25T08:50:56.608Z,10.73
2017-09-25T08:53:25.176Z,12.40
2017-09-25T08:55:53.688Z,11.97
2017-09-25T08:58:22.412Z,11.13
2017-09-25T09:00:50.982Z,14.13
2017-09-25T09:03:19.500Z,13.60
2017-09-25T09:05:47.991Z,15.00
2017-09-25T09:08:27.536Z,15.00
2017-09-25T09:10:56.039Z,13.00
2017-09-25T09:13:24.576Z,13.23
2017-09-25T09:15:53.071Z,14.63
2017-09-25T09:18:21.393Z,13.73
2017-09-25T09:20:49.942Z,13.53
2017-09-25T09:23:18.484Z,14.13
2017-09-25T09:25:46.948Z,14.87
2017-09-25T09:28:15.462Z,16.20
2017-09-25T09:30:43.952Z,14.87
2017-09-25T09:33:12.457Z,15.30
2017-09-25T09:35:40.970Z,14.70
2017-09-25T09:38:09.606Z,13.83
2017-09-25T09:40:38.155Z,15.30
2017-09-25T09:43:06.641Z,15.30
2017-09-25T09:45:35.113Z,14.93
2017-09-25T09:48:03.644Z,14.80
2017-09-25T09:50:32.330Z,15.53
2017-09-25T09:53:00.881Z,14.87
2017-09-25T09:55:29.575Z,16.30
2017-09-25T09:57:58.041Z,15.83
2017-09-25T10:00:26.542Z,15.87
2017-09-25T10:02:55.083Z,14.97
2017-09-25T10:05:23.614Z,14.93
2017-09-25T10:07:52.083Z,15.73
2017-09-25T10:10:20.557Z,16.43
2017-09-25T10:12:49.097Z,16.73
2017-09-25T10:15:17.566Z,16.87
2017-09-25T10:17:46.036Z,15.53
2017-09-25T10:20:14.520Z,16.67
2017-09-25T10:22:43.031Z,18.70
2017-09-25T10:25:11.494Z,17.67
2017-09-25T10:27:40.060Z,19.57
2017-09-25T10:30:08.534Z,18.33
2017-09-25T10:32:37.017Z,19.83
2017-09-25T10:35:05.503Z,20.00
2017-09-25T10:37:33.716Z,18.03
2017-09-25T10:40:02.250Z,19.90
2017-09-25T10:42:30.800Z,20.10
2017-09-25T10:44:59.338Z,19.40
2017-09-25T10:47:27.831Z,17.50
2017-09-25T10:49:56.368Z,19.10
2017-09-25T10:52:24.846Z,16.00
2017-09-25T10:54:53.317Z,19.00
2017-09-25T10:57:21.823Z,18.97
2017-09-25T10:59:51.491Z,18.90
2017-09-25T11:02:19.998Z,12.90
2017-09-25T11:04:48.630Z,12.93
2017-09-25T11:07:17.414Z,12.47
2017-09-25T11:09:45.808Z,13.03
2017-09-25T11:12:14.376Z,14.10
2017-09-25T11:14:42.892Z,15.50
2017-09-25T11:17:11.429Z,17.30
2017-09-25T11:19:39.971Z,16.43
2017-09-25T11:22:08.549Z,15.23
2017-09-25T11:24:37.090Z,18.80
2017-09-25T11:27:05.713Z,19.10
2017-09-25T11:29:34.298Z,15.73
2017-09-25T11:32:02.841Z,18.13
2017-09-25T11:34:31.351Z,16.70
2017-09-25T11:36:59.882Z,16.83
2017-09-25T11:39:28.363Z,18.03
2017-09-25T11:41:56.896Z,17.27
2017-09-25T11:44:25.368Z,18.00
2017-09-25T11:46:53.859Z,15.73
2017-09-25T11:49:22.016Z,17.70
2017-09-25T11:51:50.550Z,15.40
2017-09-25T11:54:19.638Z,16.20
2017-09-25T11:56:48.116Z,16.00
2017-09-25T11:59:17.376Z,15.80
2017-09-25T12:01:45.895Z,15.90
2017-09-25T12:04:14.386Z,15.80
2017-09-25T12:06:42.863Z,17.67
2017-09-25T12:09:11.383Z,14.53
2017-09-25T12:11:39.930Z,15.87
2017-09-25T12:14:08.427Z,16.70
2017-09-25T12:16:36.952Z,18.10
2017-09-25T12:19:05.412Z,17.80
2017-09-25T12:21:34.528Z,16.03
2017-09-25T12:24:03.013Z,15.70
2017-09-25T12:26:31.513Z,13.50
2017-09-25T12:29:00.065Z,12.63
2017-09-25T12:31:28.566Z,13.87
2017-09-25T12:33:57.147Z,14.70
2017-09-25T12:36:26.623Z,14.87
2017-09-25T12:38:55.279Z,15.00
2017-09-25T12:41:26.542Z,15.27
2017-09-25T12:43:54.940Z,17.27
2017-09-25T12:46:23.630Z,15.67
2017-09-25T12:48:52.219Z,17.47
2017-09-25T12:51:20.803Z,18.13
2017-09-25T12:53:49.346Z,16.50
2017-09-25T12:56:17.996Z,19.30
2017-09-25T12:58:46.566Z,17.80
2017-09-25T13:01:15.164Z,16.70
2017-09-25T13:03:43.827Z,19.43
2017-09-25T13:06:12.558Z,16.33
2017-09-25T13:08:41.377Z,18.10
2017-09-25T13:11:10.782Z,17.90
2017-09-25T13:13:40.039Z,16.47
2017-09-25T13:16:08.524Z,16.90
2017-09-25T13:18:37.372Z,16.70
2017-09-25T13:21:07.046Z,16.47
2017-09-25T13:23:37.718Z,19.53
2017-09-25T13:26:06.509Z,18.00
2017-09-25T13:28:35.032Z,17.90
2017-09-25T13:33:37.592Z,15.00
2017-09-25T13:38:54.791Z,14.27
2017-09-25T13:42:13.411Z,13.63
2017-09-25T15:41:36.099Z,18.80
2017-09-25T15:44:04.649Z,19.93
2017-09-25T15:46:34.003Z,16.60
2017-09-25T15:49:02.606Z,19.20
2017-09-25T15:51:32.056Z,19.30
2017-09-25T15:54:00.602Z,19.07
2017-09-25T15:56:29.978Z,21.50
2017-09-25T15:58:59.317Z,20.60
2017-09-25T16:01:27.967Z,20.83
2017-09-25T16:03:56.683Z,20.30
2017-09-25T16:06:25.167Z,19.77
2017-09-25T16:08:53.731Z,19.97
2017-09-25T16:11:22.258Z,19.13
2017-09-25T16:13:50.810Z,20.10
2017-09-25T16:16:20.151Z,20.20
2017-09-25T16:18:48.674Z,19.27
2017-09-25T16:21:17.265Z,22.57
2017-09-25T16:23:45.875Z,21.87
2017-09-25T16:26:14.418Z,21.50
2017-09-25T16:28:42.954Z,24.70
2017-09-25T16:31:11.530Z,21.80
2017-09-25T16:33:41.040Z,21.73
2017-09-25T16:36:10.554Z,21.33
2017-09-25T16:42:47.583Z,21.57
2017-09-25T17:13:28.508Z,22.20
2017-09-25T17:22:56.560Z,19.37
2017-09-25T17:25:25.116Z,20.70
2017-09-25T17:27:53.575Z,20.37
2017-09-25T17:30:22.137Z,20.37
2017-09-25T17:32:51.472Z,24.47
2017-09-25T17:35:20.282Z,23.27
2017-09-25T17:37:48.882Z,21.13
2017-09-25T17:40:17.997Z,21.93
2017-09-25T17:42:46.609Z,22.40
2017-09-25T17:49:06.042Z,20.90
2017-09-25T17:51:36.082Z,22.10
2017-09-25T17:54:09.278Z,20.20
2017-09-25T17:56:38.993Z,22.17
2017-09-25T17:59:07.654Z,21.50
2017-09-25T18:27:11.047Z,22.40
2017-09-25T18:29:56.872Z,19.70
2017-09-25T18:35:57.052Z,19.73
2017-09-25T18:39:07.065Z,20.40
2017-09-25T18:51:33.558Z,25.00
2017-09-25T19:17:37.652Z,20.20
2017-09-25T19:20:54.812Z,19.57
2017-09-25T21:33:16.183Z,14.07
2017-09-25T21:45:55.957Z,14.57
2017-09-25T21:48:25.970Z,16.43
2017-09-25T21:50:56.293Z,16.40
2017-09-25T21:53:26.157Z,17.20
2017-09-25T21:55:56.136Z,18.03
2017-09-25T21:58:25.288Z,22.10
2017-09-25T22:00:53.933Z,23.40
2017-09-25T22:03:23.033Z,21.00
2017-09-25T22:05:51.598Z,19.93
2017-09-25T22:08:20.115Z,17.13
2017-09-25T22:10:48.768Z,21.03
2017-09-25T22:13:17.038Z,21.67
2017-09-25T22:15:45.785Z,20.77
2017-09-25T22:18:15.068Z,24.47
2017-09-25T22:20:44.432Z,24.53
2017-09-25T22:23:12.970Z,25.00
2017-09-25T22:25:41.498Z,24.93
2017-09-25T22:28:10.088Z,24.40
2017-09-25T22:30:38.690Z,25.63
2017-09-25T22:33:08.025Z,26.30
2017-09-25T22:35:36.422Z,25.50
2017-09-25T22:38:04.803Z,24.70
2017-09-25T22:40:33.168Z,23.10
2017-09-25T22:43:01.551Z,25.17
2017-09-25T22:45:29.880Z,24.80
2017-09-25T22:47:58.436Z,26.00
2017-09-25T22:50:26.817Z,25.53
2017-09-25T22:52:55.063Z,21.60
2017-09-25T22:55:23.670Z,24.90
2017-09-25T22:57:52.123Z,22.63
2017-09-25T23:00:20.791Z,21.80
2017-09-25T23:02:49.092Z,21.70
2017-09-25T23:05:27.718Z,22.17
2017-09-25T23:07:56.037Z,23.50
2017-09-25T23:10:24.382Z,24.03
2017-09-25T23:12:52.797Z,24.10
2017-09-25T23:15:21.324Z,22.50
2017-09-25T23:17:50.486Z,23.40
2017-09-25T23:20:19.070Z,23.00
2017-09-25T23:22:47.684Z,24.37
2017-09-25T23:25:17.841Z,23.53
2017-09-25T23:27:46.191Z,23.20
2017-09-25T23:30:35.058Z,24.50
2017-09-25T23:33:03.422Z,23.30
2017-09-25T23:35:31.999Z,20.70
2017-09-25T23:38:00.615Z,20.47
2017-09-25T23:40:29.214Z,17.87
2017-09-25T23:42:57.754Z,18.90
2017-09-25T23:45:26.363Z,18.60
2017-09-25T23:47:54.931Z,16.73
2017-09-25T23:50:24.052Z,18.03
2017-09-25T23:52:53.370Z,13.80
2017-09-25T23:55:21.977Z,13.80
2017-09-25T23:57:50.530Z,14.70
